sensor_id;sensor_type;location;lat;lon;timestamp;P1;durP1;ratioP1;P2;durP2;ratioP2
15673;SDS011;7937;48.090;16.212;2023-11-19T00:00:54;2.23;;;1.97;;
15673;SDS011;7937;48.090;16.212;2023-11-19T00:03:56;1.70;;;1.50;;
15673;SDS011;7937;48.090;16.212;2023-11-19T00:06:58;2.67;;;1.83;;
15673;SDS011;7937;48.090;16.212;2023-11-19T00:10:05;1.70;;;1.60;;
15673;SDS011;7937;48.090;16.212;2023-11-19T00:13:11;2.57;;;1.90;;
15673;SDS011;7937;48.090;16.212;2023-11-19T00:16:14;2.83;;;1.90;;
15673;SDS011;7937;48.090;16.212;2023-11-19T00:19:16;2.20;;;2.00;;
15673;SDS011;7937;48.090;16.212;2023-11-19T00:22:18;1.70;;;1.60;;
15673;SDS011;7937;48.090;16.212;2023-11-19T00:25:22;3.00;;;1.80;;
15673;SDS011;7937;48.090;16.212;2023-11-19T00:28:24;2.20;;;1.60;;
15673;SDS011;7937;48.090;16.212;2023-11-19T00:31:26;1.70;;;1.60;;
15673;SDS011;7937;48.090;16.212;2023-11-19T00:34:29;2.33;;;2.00;;
15673;SDS011;7937;48.090;16.212;2023-11-19T00:37:31;2.17;;;1.87;;
15673;SDS011;7937;48.090;16.212;2023-11-19T00:40:33;5.13;;;1.80;;
15673;SDS011;7937;48.090;16.212;2023-11-19T00:43:36;4.50;;;1.70;;
15673;SDS011;7937;48.090;16.212;2023-11-19T00:46:38;2.27;;;1.70;;
15673;SDS011;7937;48.090;16.212;2023-11-19T00:49:40;2.00;;;1.80;;
15673;SDS011;7937;48.090;16.212;2023-11-19T00:52:44;3.63;;;1.90;;
15673;SDS011;7937;48.090;16.212;2023-11-19T00:55:46;2.93;;;1.60;;
15673;SDS011;7937;48.090;16.212;2023-11-19T00:58:49;3.67;;;1.70;;
15673;SDS011;7937;48.090;16.212;2023-11-19T01:01:51;2.07;;;1.87;;
15673;SDS011;7937;48.090;16.212;2023-11-19T01:04:53;1.80;;;1.67;;
15673;SDS011;7937;48.090;16.212;2023-11-19T01:07:55;2.10;;;1.80;;
15673;SDS011;7937;48.090;16.212;2023-11-19T01:10:57;1.80;;;1.70;;
15673;SDS011;7937;48.090;16.212;2023-11-19T01:14:00;1.67;;;1.57;;
15673;SDS011;7937;48.090;16.212;2023-11-19T01:17:02;1.40;;;1.30;;
15673;SDS011;7937;48.090;16.212;2023-11-19T01:20:06;3.43;;;1.67;;
15673;SDS011;7937;48.090;16.212;2023-11-19T01:23:09;1.97;;;1.77;;
15673;SDS011;7937;48.090;16.212;2023-11-19T01:26:11;1.70;;;1.50;;
15673;SDS011;7937;48.090;16.212;2023-11-19T01:29:14;1.50;;;1.40;;
15673;SDS011;7937;48.090;16.212;2023-11-19T01:32:17;3.90;;;1.83;;
15673;SDS011;7937;48.090;16.212;2023-11-19T01:35:22;2.00;;;1.50;;
15673;SDS011;7937;48.090;16.212;2023-11-19T01:38:28;2.37;;;1.70;;
15673;SDS011;7937;48.090;16.212;2023-11-19T01:41:34;2.23;;;1.70;;
15673;SDS011;7937;48.090;16.212;2023-11-19T01:44:37;2.93;;;1.60;;
15673;SDS011;7937;48.090;16.212;2023-11-19T01:47:39;1.70;;;1.47;;
15673;SDS011;7937;48.090;16.212;2023-11-19T01:50:42;1.90;;;1.70;;
15673;SDS011;7937;48.090;16.212;2023-11-19T01:53:44;2.00;;;1.70;;
15673;SDS011;7937;48.090;16.212;2023-11-19T01:56:46;3.70;;;2.80;;
15673;SDS011;7937;48.090;16.212;2023-11-19T01:59:52;3.07;;;2.70;;
15673;SDS011;7937;48.090;16.212;2023-11-19T02:02:55;3.50;;;2.90;;
15673;SDS011;7937;48.090;16.212;2023-11-19T02:05:57;2.60;;;2.40;;
15673;SDS011;7937;48.090;16.212;2023-11-19T02:09:01;2.37;;;2.17;;
15673;SDS011;7937;48.090;16.212;2023-11-19T02:12:03;3.03;;;2.53;;
15673;SDS011;7937;48.090;16.212;2023-11-19T02:15:06;3.80;;;2.70;;
15673;SDS011;7937;48.090;16.212;2023-11-19T02:21:21;3.27;;;2.57;;
15673;SDS011;7937;48.090;16.212;2023-11-19T02:24:23;4.47;;;3.83;;
15673;SDS011;7937;48.090;16.212;2023-11-19T02:30:47;3.60;;;3.30;;
15673;SDS011;7937;48.090;16.212;2023-11-19T02:33:49;3.37;;;2.90;;
15673;SDS011;7937;48.090;16.212;2023-11-19T02:36:52;4.00;;;3.13;;
15673;SDS011;7937;48.090;16.212;2023-11-19T02:39:55;3.23;;;2.90;;
15673;SDS011;7937;48.090;16.212;2023-11-19T02:42:58;4.60;;;3.30;;
15673;SDS011;7937;48.090;16.212;2023-11-19T02:46:02;3.33;;;2.97;;
15673;SDS011;7937;48.090;16.212;2023-11-19T02:49:11;2.70;;;2.40;;
15673;SDS011;7937;48.090;16.212;2023-11-19T02:52:14;4.03;;;3.07;;
15673;SDS011;7937;48.090;16.212;2023-11-19T02:55:16;4.67;;;3.00;;
15673;SDS011;7937;48.090;16.212;2023-11-19T02:58:19;3.70;;;3.40;;
15673;SDS011;7937;48.090;16.212;2023-11-19T03:01:22;4.43;;;3.80;;
15673;SDS011;7937;48.090;16.212;2023-11-19T03:04:35;4.20;;;3.80;;
15673;SDS011;7937;48.090;16.212;2023-11-19T03:07:37;5.40;;;3.60;;
15673;SDS011;7937;48.090;16.212;2023-11-19T03:10:39;4.87;;;3.03;;
15673;SDS011;7937;48.090;16.212;2023-11-19T03:13:42;3.60;;;3.17;;
15673;SDS011;7937;48.090;16.212;2023-11-19T03:16:46;4.40;;;3.60;;
15673;SDS011;7937;48.090;16.212;2023-11-19T03:19:49;3.77;;;3.37;;
15673;SDS011;7937;48.090;16.212;2023-11-19T03:22:51;3.73;;;3.37;;
15673;SDS011;7937;48.090;16.212;2023-11-19T03:25:54;6.60;;;3.50;;
15673;SDS011;7937;48.090;16.212;2023-11-19T03:28:56;4.23;;;3.70;;
15673;SDS011;7937;48.090;16.212;2023-11-19T03:31:58;3.47;;;3.07;;
15673;SDS011;7937;48.090;16.212;2023-11-19T03:35:01;4.20;;;3.43;;
15673;SDS011;7937;48.090;16.212;2023-11-19T03:38:06;4.27;;;3.47;;
15673;SDS011;7937;48.090;16.212;2023-11-19T03:41:14;4.77;;;3.80;;
15673;SDS011;7937;48.090;16.212;2023-11-19T03:44:17;4.20;;;3.50;;
15673;SDS011;7937;48.090;16.212;2023-11-19T03:47:20;4.53;;;4.13;;
15673;SDS011;7937;48.090;16.212;2023-11-19T03:50:23;4.37;;;3.80;;
15673;SDS011;7937;48.090;16.212;2023-11-19T03:53:25;4.57;;;4.17;;
15673;SDS011;7937;48.090;16.212;2023-11-19T03:56:27;4.23;;;3.53;;
15673;SDS011;7937;48.090;16.212;2023-11-19T03:59:31;5.30;;;4.30;;
15673;SDS011;7937;48.090;16.212;2023-11-19T04:02:34;4.87;;;3.90;;
15673;SDS011;7937;48.090;16.212;2023-11-19T04:05:36;4.67;;;3.73;;
15673;SDS011;7937;48.090;16.212;2023-11-19T04:08:38;4.80;;;4.30;;
15673;SDS011;7937;48.090;16.212;2023-11-19T04:11:41;6.00;;;4.37;;
15673;SDS011;7937;48.090;16.212;2023-11-19T04:14:43;5.10;;;4.27;;
15673;SDS011;7937;48.090;16.212;2023-11-19T04:17:45;6.73;;;4.63;;
15673;SDS011;7937;48.090;16.212;2023-11-19T04:20:47;5.37;;;4.73;;
15673;SDS011;7937;48.090;16.212;2023-11-19T04:23:49;5.57;;;4.97;;
15673;SDS011;7937;48.090;16.212;2023-11-19T04:26:52;5.93;;;4.60;;
15673;SDS011;7937;48.090;16.212;2023-11-19T04:29:54;5.10;;;4.60;;
15673;SDS011;7937;48.090;16.212;2023-11-19T04:32:58;4.80;;;4.30;;
15673;SDS011;7937;48.090;16.212;2023-11-19T04:36:00;5.63;;;4.63;;
15673;SDS011;7937;48.090;16.212;2023-11-19T04:39:03;5.40;;;4.50;;
15673;SDS011;7937;48.090;16.212;2023-11-19T04:42:12;5.37;;;4.83;;
15673;SDS011;7937;48.090;16.212;2023-11-19T04:45:14;6.03;;;4.80;;
15673;SDS011;7937;48.090;16.212;2023-11-19T04:48:18;5.13;;;4.00;;
15673;SDS011;7937;48.090;16.212;2023-11-19T04:51:20;5.73;;;4.80;;
15673;SDS011;7937;48.090;16.212;2023-11-19T04:54:24;5.63;;;4.70;;
15673;SDS011;7937;48.090;16.212;2023-11-19T04:57:26;4.97;;;4.47;;
15673;SDS011;7937;48.090;16.212;2023-11-19T05:00:28;5.10;;;4.60;;
15673;SDS011;7937;48.090;16.212;2023-11-19T05:03:31;5.53;;;4.20;;
15673;SDS011;7937;48.090;16.212;2023-11-19T05:06:34;5.93;;;4.50;;
15673;SDS011;7937;48.090;16.212;2023-11-19T05:09:36;4.90;;;4.40;;
15673;SDS011;7937;48.090;16.212;2023-11-19T05:12:38;4.03;;;3.50;;
15673;SDS011;7937;48.090;16.212;2023-11-19T05:15:41;5.33;;;4.00;;
15673;SDS011;7937;48.090;16.212;2023-11-19T05:18:43;4.70;;;3.70;;
15673;SDS011;7937;48.090;16.212;2023-11-19T05:21:45;4.83;;;3.67;;
15673;SDS011;7937;48.090;16.212;2023-11-19T05:24:47;4.03;;;3.60;;
15673;SDS011;7937;48.090;16.212;2023-11-19T05:27:51;4.07;;;3.53;;
15673;SDS011;7937;48.090;16.212;2023-11-19T05:30:53;4.13;;;3.40;;
15673;SDS011;7937;48.090;16.212;2023-11-19T05:33:55;3.80;;;3.40;;
15673;SDS011;7937;48.090;16.212;2023-11-19T05:36:57;6.93;;;3.40;;
15673;SDS011;7937;48.090;16.212;2023-11-19T05:39:59;4.37;;;2.60;;
15673;SDS011;7937;48.090;16.212;2023-11-19T05:43:01;2.77;;;2.37;;
15673;SDS011;7937;48.090;16.212;2023-11-19T05:46:04;2.37;;;2.17;;
15673;SDS011;7937;48.090;16.212;2023-11-19T05:49:20;3.30;;;2.60;;
15673;SDS011;7937;48.090;16.212;2023-11-19T05:52:23;3.33;;;2.90;;
15673;SDS011;7937;48.090;16.212;2023-11-19T05:55:25;2.90;;;2.43;;
15673;SDS011;7937;48.090;16.212;2023-11-19T05:58:29;2.10;;;1.90;;
15673;SDS011;7937;48.090;16.212;2023-11-19T06:01:32;3.70;;;2.30;;
15673;SDS011;7937;48.090;16.212;2023-11-19T06:04:36;2.60;;;2.13;;
15673;SDS011;7937;48.090;16.212;2023-11-19T06:07:38;2.23;;;1.90;;
15673;SDS011;7937;48.090;16.212;2023-11-19T06:10:41;1.83;;;1.50;;
15673;SDS011;7937;48.090;16.212;2023-11-19T06:13:44;2.27;;;2.03;;
15673;SDS011;7937;48.090;16.212;2023-11-19T06:16:46;2.23;;;1.57;;
15673;SDS011;7937;48.090;16.212;2023-11-19T06:19:49;2.53;;;1.70;;
15673;SDS011;7937;48.090;16.212;2023-11-19T06:22:51;2.10;;;1.80;;
15673;SDS011;7937;48.090;16.212;2023-11-19T06:25:53;1.90;;;1.80;;
15673;SDS011;7937;48.090;16.212;2023-11-19T06:28:58;2.07;;;1.77;;
15673;SDS011;7937;48.090;16.212;2023-11-19T06:32:00;2.10;;;1.90;;
15673;SDS011;7937;48.090;16.212;2023-11-19T06:35:15;1.53;;;1.43;;
15673;SDS011;7937;48.090;16.212;2023-11-19T06:38:17;1.50;;;1.20;;
15673;SDS011;7937;48.090;16.212;2023-11-19T06:41:19;2.87;;;1.83;;
15673;SDS011;7937;48.090;16.212;2023-11-19T06:44:21;1.33;;;1.23;;
15673;SDS011;7937;48.090;16.212;2023-11-19T06:47:26;1.47;;;1.30;;
15673;SDS011;7937;48.090;16.212;2023-11-19T06:50:30;2.83;;;1.80;;
15673;SDS011;7937;48.090;16.212;2023-11-19T06:53:32;2.47;;;2.00;;
15673;SDS011;7937;48.090;16.212;2023-11-19T06:56:34;2.97;;;1.70;;
15673;SDS011;7937;48.090;16.212;2023-11-19T06:59:36;2.37;;;1.50;;
15673;SDS011;7937;48.090;16.212;2023-11-19T07:02:38;1.90;;;1.70;;
15673;SDS011;7937;48.090;16.212;2023-11-19T07:05:41;3.10;;;2.00;;
15673;SDS011;7937;48.090;16.212;2023-11-19T07:08:43;1.73;;;1.50;;
15673;SDS011;7937;48.090;16.212;2023-11-19T07:11:49;2.20;;;1.53;;
15673;SDS011;7937;48.090;16.212;2023-11-19T07:14:54;2.23;;;1.97;;
15673;SDS011;7937;48.090;16.212;2023-11-19T07:17:56;2.13;;;1.90;;
15673;SDS011;7937;48.090;16.212;2023-11-19T07:21:03;4.70;;;2.00;;
15673;SDS011;7937;48.090;16.212;2023-11-19T07:24:06;2.10;;;1.70;;
15673;SDS011;7937;48.090;16.212;2023-11-19T07:27:08;2.90;;;2.33;;
15673;SDS011;7937;48.090;16.212;2023-11-19T07:30:10;2.73;;;1.90;;
15673;SDS011;7937;48.090;16.212;2023-11-19T07:33:14;4.07;;;2.17;;
15673;SDS011;7937;48.090;16.212;2023-11-19T07:36:17;3.47;;;3.17;;
15673;SDS011;7937;48.090;16.212;2023-11-19T07:39:19;4.60;;;3.20;;
15673;SDS011;7937;48.090;16.212;2023-11-19T07:42:25;3.90;;;3.00;;
15673;SDS011;7937;48.090;16.212;2023-11-19T07:45:27;3.63;;;3.33;;
15673;SDS011;7937;48.090;16.212;2023-11-19T07:48:29;4.97;;;4.20;;
15673;SDS011;7937;48.090;16.212;2023-11-19T07:51:31;5.10;;;4.10;;
15673;SDS011;7937;48.090;16.212;2023-11-19T07:54:33;4.40;;;3.93;;
15673;SDS011;7937;48.090;16.212;2023-11-19T07:57:35;5.00;;;3.87;;
15673;SDS011;7937;48.090;16.212;2023-11-19T08:00:38;3.20;;;2.90;;
15673;SDS011;7937;48.090;16.212;2023-11-19T08:03:40;3.13;;;2.83;;
15673;SDS011;7937;48.090;16.212;2023-11-19T08:06:57;3.57;;;3.27;;
15673;SDS011;7937;48.090;16.212;2023-11-19T08:10:00;3.63;;;3.33;;
15673;SDS011;7937;48.090;16.212;2023-11-19T08:13:02;3.93;;;3.13;;
15673;SDS011;7937;48.090;16.212;2023-11-19T08:16:05;2.80;;;2.60;;
15673;SDS011;7937;48.090;16.212;2023-11-19T08:19:08;4.30;;;3.47;;
15673;SDS011;7937;48.090;16.212;2023-11-19T08:22:10;4.30;;;3.70;;
15673;SDS011;7937;48.090;16.212;2023-11-19T08:25:12;3.97;;;3.50;;
15673;SDS011;7937;48.090;16.212;2023-11-19T08:28:15;4.47;;;3.57;;
15673;SDS011;7937;48.090;16.212;2023-11-19T08:31:17;4.43;;;3.57;;
15673;SDS011;7937;48.090;16.212;2023-11-19T08:34:19;3.90;;;3.50;;
15673;SDS011;7937;48.090;16.212;2023-11-19T08:37:21;3.30;;;3.00;;
15673;SDS011;7937;48.090;16.212;2023-11-19T08:40:26;2.73;;;2.47;;
15673;SDS011;7937;48.090;16.212;2023-11-19T08:43:30;3.27;;;2.97;;
15673;SDS011;7937;48.090;16.212;2023-11-19T08:46:33;3.10;;;2.80;;
15673;SDS011;7937;48.090;16.212;2023-11-19T08:49:35;2.57;;;2.37;;
15673;SDS011;7937;48.090;16.212;2023-11-19T08:52:37;3.30;;;2.90;;
15673;SDS011;7937;48.090;16.212;2023-11-19T08:55:40;3.37;;;3.07;;
15673;SDS011;7937;48.090;16.212;2023-11-19T08:58:42;3.13;;;2.83;;
15673;SDS011;7937;48.090;16.212;2023-11-19T09:01:44;3.70;;;3.03;;
15673;SDS011;7937;48.090;16.212;2023-11-19T09:04:46;3.80;;;3.40;;
15673;SDS011;7937;48.090;16.212;2023-11-19T09:07:50;3.80;;;3.50;;
15673;SDS011;7937;48.090;16.212;2023-11-19T09:10:52;3.70;;;3.20;;
15673;SDS011;7937;48.090;16.212;2023-11-19T09:13:54;4.57;;;3.50;;
15673;SDS011;7937;48.090;16.212;2023-11-19T09:16:57;3.20;;;2.80;;
15673;SDS011;7937;48.090;16.212;2023-11-19T09:19:59;3.33;;;3.03;;
15673;SDS011;7937;48.090;16.212;2023-11-19T09:23:02;3.20;;;2.90;;
15673;SDS011;7937;48.090;16.212;2023-11-19T09:26:06;3.80;;;3.40;;
15673;SDS011;7937;48.090;16.212;2023-11-19T09:29:10;3.30;;;3.00;;
15673;SDS011;7937;48.090;16.212;2023-11-19T09:32:13;3.87;;;3.47;;
15673;SDS011;7937;48.090;16.212;2023-11-19T09:35:15;3.10;;;2.80;;
15673;SDS011;7937;48.090;16.212;2023-11-19T09:38:20;4.43;;;3.20;;
15673;SDS011;7937;48.090;16.212;2023-11-19T09:41:23;3.87;;;3.37;;
15673;SDS011;7937;48.090;16.212;2023-11-19T09:44:27;4.50;;;3.53;;
15673;SDS011;7937;48.090;16.212;2023-11-19T09:47:29;4.30;;;3.90;;
15673;SDS011;7937;48.090;16.212;2023-11-19T09:50:32;3.53;;;3.17;;
15673;SDS011;7937;48.090;16.212;2023-11-19T09:53:34;3.27;;;2.97;;
15673;SDS011;7937;48.090;16.212;2023-11-19T09:56:38;4.33;;;3.73;;
15673;SDS011;7937;48.090;16.212;2023-11-19T09:59:41;4.03;;;3.63;;
15673;SDS011;7937;48.090;16.212;2023-11-19T10:02:44;5.27;;;3.53;;
15673;SDS011;7937;48.090;16.212;2023-11-19T10:05:48;4.27;;;3.87;;
15673;SDS011;7937;48.090;16.212;2023-11-19T10:08:50;4.17;;;3.77;;
15673;SDS011;7937;48.090;16.212;2023-11-19T10:11:52;4.00;;;3.47;;
15673;SDS011;7937;48.090;16.212;2023-11-19T10:14:55;4.67;;;3.10;;
15673;SDS011;7937;48.090;16.212;2023-11-19T10:18:00;5.27;;;4.20;;
15673;SDS011;7937;48.090;16.212;2023-11-19T10:21:02;4.70;;;4.00;;
15673;SDS011;7937;48.090;16.212;2023-11-19T10:24:08;3.97;;;3.57;;
15673;SDS011;7937;48.090;16.212;2023-11-19T10:27:10;5.20;;;3.70;;
15673;SDS011;7937;48.090;16.212;2023-11-19T10:30:12;4.13;;;3.73;;
15673;SDS011;7937;48.090;16.212;2023-11-19T10:33:15;3.57;;;3.27;;
15673;SDS011;7937;48.090;16.212;2023-11-19T10:36:19;5.40;;;4.33;;
15673;SDS011;7937;48.090;16.212;2023-11-19T10:39:26;5.60;;;4.77;;
15673;SDS011;7937;48.090;16.212;2023-11-19T10:43:01;5.30;;;4.50;;
15673;SDS011;7937;48.090;16.212;2023-11-19T10:46:10;5.93;;;5.33;;
15673;SDS011;7937;48.090;16.212;2023-11-19T10:49:13;7.07;;;5.30;;
15673;SDS011;7937;48.090;16.212;2023-11-19T10:52:17;6.03;;;5.37;;
15673;SDS011;7937;48.090;16.212;2023-11-19T10:55:24;6.60;;;5.50;;
15673;SDS011;7937;48.090;16.212;2023-11-19T10:58:32;7.70;;;6.33;;
15673;SDS011;7937;48.090;16.212;2023-11-19T11:01:43;6.30;;;5.70;;
15673;SDS011;7937;48.090;16.212;2023-11-19T11:04:47;6.73;;;5.17;;
15673;SDS011;7937;48.090;16.212;2023-11-19T11:07:49;7.73;;;5.50;;
15673;SDS011;7937;48.090;16.212;2023-11-19T11:10:54;5.57;;;4.97;;
15673;SDS011;7937;48.090;16.212;2023-11-19T11:14:18;5.33;;;4.70;;
15673;SDS011;7937;48.090;16.212;2023-11-19T11:17:24;6.07;;;5.23;;
15673;SDS011;7937;48.090;16.212;2023-11-19T11:20:33;5.40;;;4.90;;
15673;SDS011;7937;48.090;16.212;2023-11-19T11:26:57;5.87;;;5.27;;
15673;SDS011;7937;48.090;16.212;2023-11-19T11:37:32;8.17;;;6.77;;
15673;SDS011;7937;48.090;16.212;2023-11-19T11:40:39;8.70;;;6.70;;
15673;SDS011;7937;48.090;16.212;2023-11-19T11:43:45;7.70;;;6.80;;
15673;SDS011;7937;48.090;16.212;2023-11-19T11:46:54;8.23;;;6.77;;
15673;SDS011;7937;48.090;16.212;2023-11-19T11:49:56;7.30;;;6.60;;
15673;SDS011;7937;48.090;16.212;2023-11-19T11:53:18;8.83;;;7.87;;
15673;SDS011;7937;48.090;16.212;2023-11-19T11:56:21;8.30;;;7.40;;
15673;SDS011;7937;48.090;16.212;2023-11-19T11:59:23;7.83;;;6.97;;
15673;SDS011;7937;48.090;16.212;2023-11-19T12:02:26;7.50;;;5.93;;
15673;SDS011;7937;48.090;16.212;2023-11-19T12:05:29;8.07;;;7.27;;
15673;SDS011;7937;48.090;16.212;2023-11-19T12:08:32;8.93;;;7.03;;
15673;SDS011;7937;48.090;16.212;2023-11-19T12:12:07;9.30;;;6.80;;
15673;SDS011;7937;48.090;16.212;2023-11-19T12:15:22;7.83;;;7.00;;
15673;SDS011;7937;48.090;16.212;2023-11-19T12:18:27;8.97;;;7.43;;
15673;SDS011;7937;48.090;16.212;2023-11-19T12:21:33;11.13;;;9.00;;
15673;SDS011;7937;48.090;16.212;2023-11-19T12:24:39;13.27;;;9.30;;
15673;SDS011;7937;48.090;16.212;2023-11-19T12:27:50;11.63;;;10.13;;
15673;SDS011;7937;48.090;16.212;2023-11-19T12:31:06;11.90;;;10.07;;
15673;SDS011;7937;48.090;16.212;2023-11-19T12:34:11;10.73;;;9.33;;
15673;SDS011;7937;48.090;16.212;2023-11-19T12:37:14;12.37;;;11.13;;
15673;SDS011;7937;48.090;16.212;2023-11-19T12:40:19;15.60;;;12.23;;
15673;SDS011;7937;48.090;16.212;2023-11-19T12:43:23;13.57;;;12.10;;
15673;SDS011;7937;48.090;16.212;2023-11-19T12:46:25;14.30;;;12.63;;
15673;SDS011;7937;48.090;16.212;2023-11-19T12:49:29;15.07;;;12.47;;
15673;SDS011;7937;48.090;16.212;2023-11-19T12:52:31;14.03;;;12.30;;
15673;SDS011;7937;48.090;16.212;2023-11-19T12:55:34;13.87;;;12.37;;
15673;SDS011;7937;48.090;16.212;2023-11-19T12:58:36;17.07;;;13.87;;
15673;SDS011;7937;48.090;16.212;2023-11-19T13:01:40;16.63;;;13.27;;
15673;SDS011;7937;48.090;16.212;2023-11-19T13:04:44;15.20;;;12.63;;
15673;SDS011;7937;48.090;16.212;2023-11-19T13:07:46;14.63;;;12.67;;
15673;SDS011;7937;48.090;16.212;2023-11-19T13:13:57;13.40;;;10.93;;
15673;SDS011;7937;48.090;16.212;2023-11-19T13:17:02;13.87;;;10.40;;
15673;SDS011;7937;48.090;16.212;2023-11-19T13:20:05;10.53;;;8.17;;
15673;SDS011;7937;48.090;16.212;2023-11-19T13:23:08;2.30;;;2.10;;
15673;SDS011;7937;48.090;16.212;2023-11-19T13:26:11;4.03;;;3.63;;
15673;SDS011;7937;48.090;16.212;2023-11-19T13:29:13;4.57;;;4.07;;
15673;SDS011;7937;48.090;16.212;2023-11-19T13:32:16;2.00;;;1.80;;
15673;SDS011;7937;48.090;16.212;2023-11-19T13:35:18;1.27;;;1.17;;
15673;SDS011;7937;48.090;16.212;2023-11-19T13:38:20;1.80;;;1.27;;
15673;SDS011;7937;48.090;16.212;2023-11-19T13:41:22;0.90;;;0.90;;
15673;SDS011;7937;48.090;16.212;2023-11-19T13:44:25;1.30;;;0.90;;
15673;SDS011;7937;48.090;16.212;2023-11-19T13:47:27;0.57;;;0.57;;
15673;SDS011;7937;48.090;16.212;2023-11-19T13:50:29;0.60;;;0.53;;
15673;SDS011;7937;48.090;16.212;2023-11-19T13:53:35;0.67;;;0.67;;
15673;SDS011;7937;48.090;16.212;2023-11-19T13:56:40;0.67;;;0.60;;
15673;SDS011;7937;48.090;16.212;2023-11-19T13:59:42;0.90;;;0.43;;
15673;SDS011;7937;48.090;16.212;2023-11-19T14:02:45;0.70;;;0.60;;
15673;SDS011;7937;48.090;16.212;2023-11-19T14:05:49;1.50;;;0.67;;
15673;SDS011;7937;48.090;16.212;2023-11-19T14:08:54;1.60;;;0.50;;
15673;SDS011;7937;48.090;16.212;2023-11-19T14:11:56;0.80;;;0.63;;
15673;SDS011;7937;48.090;16.212;2023-11-19T14:14:59;0.43;;;0.43;;
15673;SDS011;7937;48.090;16.212;2023-11-19T14:18:02;0.80;;;0.50;;
15673;SDS011;7937;48.090;16.212;2023-11-19T14:21:04;0.63;;;0.60;;
15673;SDS011;7937;48.090;16.212;2023-11-19T14:24:07;2.67;;;0.50;;
15673;SDS011;7937;48.090;16.212;2023-11-19T14:27:10;0.70;;;0.50;;
15673;SDS011;7937;48.090;16.212;2023-11-19T14:30:12;1.07;;;0.47;;
15673;SDS011;7937;48.090;16.212;2023-11-19T14:33:15;0.77;;;0.47;;
15673;SDS011;7937;48.090;16.212;2023-11-19T14:36:17;1.07;;;0.53;;
15673;SDS011;7937;48.090;16.212;2023-11-19T14:39:19;3.40;;;0.80;;
15673;SDS011;7937;48.090;16.212;2023-11-19T14:42:21;0.73;;;0.73;;
15673;SDS011;7937;48.090;16.212;2023-11-19T14:45:24;1.37;;;0.77;;
15673;SDS011;7937;48.090;16.212;2023-11-19T14:48:27;0.70;;;0.70;;
15673;SDS011;7937;48.090;16.212;2023-11-19T14:51:30;1.23;;;0.90;;
15673;SDS011;7937;48.090;16.212;2023-11-19T14:54:33;0.80;;;0.80;;
15673;SDS011;7937;48.090;16.212;2023-11-19T14:57:36;0.90;;;0.90;;
15673;SDS011;7937;48.090;16.212;2023-11-19T15:00:41;0.70;;;0.70;;
15673;SDS011;7937;48.090;16.212;2023-11-19T15:03:44;1.00;;;0.70;;
15673;SDS011;7937;48.090;16.212;2023-11-19T15:06:49;1.57;;;0.93;;
15673;SDS011;7937;48.090;16.212;2023-11-19T15:09:51;1.00;;;0.90;;
15673;SDS011;7937;48.090;16.212;2023-11-19T15:12:54;1.83;;;1.10;;
15673;SDS011;7937;48.090;16.212;2023-11-19T15:15:56;1.10;;;0.80;;
15673;SDS011;7937;48.090;16.212;2023-11-19T15:18:59;0.63;;;0.63;;
15673;SDS011;7937;48.090;16.212;2023-11-19T15:22:01;1.20;;;0.73;;
15673;SDS011;7937;48.090;16.212;2023-11-19T15:25:06;0.70;;;0.70;;
15673;SDS011;7937;48.090;16.212;2023-11-19T15:28:12;1.87;;;0.70;;
15673;SDS011;7937;48.090;16.212;2023-11-19T15:31:14;0.87;;;0.80;;
15673;SDS011;7937;48.090;16.212;2023-11-19T15:34:18;1.03;;;0.80;;
15673;SDS011;7937;48.090;16.212;2023-11-19T15:37:21;0.83;;;0.70;;
15673;SDS011;7937;48.090;16.212;2023-11-19T15:40:23;3.13;;;1.13;;
15673;SDS011;7937;48.090;16.212;2023-11-19T15:43:25;0.60;;;0.60;;
15673;SDS011;7937;48.090;16.212;2023-11-19T15:46:27;0.50;;;0.50;;
15673;SDS011;7937;48.090;16.212;2023-11-19T15:49:29;1.90;;;0.60;;
15673;SDS011;7937;48.090;16.212;2023-11-19T15:52:32;2.23;;;0.60;;
15673;SDS011;7937;48.090;16.212;2023-11-19T15:55:34;4.80;;;0.60;;
15673;SDS011;7937;48.090;16.212;2023-11-19T15:58:36;2.47;;;0.70;;
15673;SDS011;7937;48.090;16.212;2023-11-19T16:01:41;0.67;;;0.67;;
15673;SDS011;7937;48.090;16.212;2023-11-19T16:04:43;0.43;;;0.40;;
15673;SDS011;7937;48.090;16.212;2023-11-19T16:07:49;1.17;;;0.90;;
15673;SDS011;7937;48.090;16.212;2023-11-19T16:10:51;1.90;;;0.50;;
15673;SDS011;7937;48.090;16.212;2023-11-19T16:13:54;5.67;;;0.90;;
15673;SDS011;7937;48.090;16.212;2023-11-19T16:16:57;0.60;;;0.50;;
15673;SDS011;7937;48.090;16.212;2023-11-19T16:19:59;1.00;;;0.63;;
15673;SDS011;7937;48.090;16.212;2023-11-19T16:23:01;0.87;;;0.80;;
15673;SDS011;7937;48.090;16.212;2023-11-19T16:26:06;1.17;;;0.60;;
15673;SDS011;7937;48.090;16.212;2023-11-19T16:29:09;1.17;;;0.60;;
15673;SDS011;7937;48.090;16.212;2023-11-19T16:32:11;4.30;;;1.20;;
15673;SDS011;7937;48.090;16.212;2023-11-19T16:35:13;0.70;;;0.60;;
15673;SDS011;7937;48.090;16.212;2023-11-19T16:38:16;0.80;;;0.80;;
15673;SDS011;7937;48.090;16.212;2023-11-19T16:41:19;2.23;;;0.90;;
15673;SDS011;7937;48.090;16.212;2023-11-19T16:44:40;0.80;;;0.80;;
15673;SDS011;7937;48.090;16.212;2023-11-19T16:47:43;0.83;;;0.83;;
15673;SDS011;7937;48.090;16.212;2023-11-19T16:50:47;0.70;;;0.70;;
15673;SDS011;7937;48.090;16.212;2023-11-19T16:53:54;1.43;;;0.93;;
15673;SDS011;7937;48.090;16.212;2023-11-19T16:56:57;2.63;;;0.70;;
15673;SDS011;7937;48.090;16.212;2023-11-19T16:59:59;0.90;;;0.90;;
15673;SDS011;7937;48.090;16.212;2023-11-19T17:03:01;1.87;;;0.83;;
15673;SDS011;7937;48.090;16.212;2023-11-19T17:06:05;2.77;;;1.47;;
15673;SDS011;7937;48.090;16.212;2023-11-19T17:09:10;1.57;;;1.43;;
15673;SDS011;7937;48.090;16.212;2023-11-19T17:12:14;2.60;;;1.30;;
15673;SDS011;7937;48.090;16.212;2023-11-19T17:15:17;2.13;;;1.27;;
15673;SDS011;7937;48.090;16.212;2023-11-19T17:18:19;1.80;;;1.20;;
15673;SDS011;7937;48.090;16.212;2023-11-19T17:21:22;1.53;;;1.20;;
15673;SDS011;7937;48.090;16.212;2023-11-19T17:24:26;1.60;;;1.20;;
15673;SDS011;7937;48.090;16.212;2023-11-19T17:27:30;1.67;;;1.57;;
15673;SDS011;7937;48.090;16.212;2023-11-19T17:30:32;2.50;;;1.20;;
15673;SDS011;7937;48.090;16.212;2023-11-19T17:33:37;1.30;;;1.20;;
15673;SDS011;7937;48.090;16.212;2023-11-19T17:36:39;1.07;;;0.97;;
15673;SDS011;7937;48.090;16.212;2023-11-19T17:39:41;1.73;;;1.00;;
15673;SDS011;7937;48.090;16.212;2023-11-19T17:42:44;1.60;;;0.80;;
15673;SDS011;7937;48.090;16.212;2023-11-19T17:45:46;1.63;;;1.20;;
15673;SDS011;7937;48.090;16.212;2023-11-19T17:48:49;0.97;;;0.90;;
15673;SDS011;7937;48.090;16.212;2023-11-19T17:51:51;2.70;;;0.80;;
15673;SDS011;7937;48.090;16.212;2023-11-19T17:54:53;1.03;;;0.87;;
15673;SDS011;7937;48.090;16.212;2023-11-19T17:57:56;2.60;;;1.03;;
15673;SDS011;7937;48.090;16.212;2023-11-19T18:00:58;2.37;;;0.80;;
15673;SDS011;7937;48.090;16.212;2023-11-19T18:04:00;9.97;;;1.23;;
15673;SDS011;7937;48.090;16.212;2023-11-19T18:07:03;1.13;;;0.90;;
15673;SDS011;7937;48.090;16.212;2023-11-19T18:10:05;1.30;;;1.20;;
15673;SDS011;7937;48.090;16.212;2023-11-19T18:13:09;1.20;;;0.90;;
15673;SDS011;7937;48.090;16.212;2023-11-19T18:16:12;1.83;;;1.07;;
15673;SDS011;7937;48.090;16.212;2023-11-19T18:19:17;1.47;;;0.90;;
15673;SDS011;7937;48.090;16.212;2023-11-19T18:22:20;1.87;;;1.10;;
15673;SDS011;7937;48.090;16.212;2023-11-19T18:25:22;1.17;;;0.83;;
15673;SDS011;7937;48.090;16.212;2023-11-19T18:28:25;2.93;;;0.80;;
15673;SDS011;7937;48.090;16.212;2023-11-19T18:31:30;1.10;;;0.80;;
15673;SDS011;7937;48.090;16.212;2023-11-19T18:34:35;0.80;;;0.70;;
15673;SDS011;7937;48.090;16.212;2023-11-19T18:37:41;1.67;;;0.87;;
15673;SDS011;7937;48.090;16.212;2023-11-19T18:40:48;1.37;;;0.70;;
15673;SDS011;7937;48.090;16.212;2023-11-19T18:43:52;1.00;;;0.80;;